Girouxville, Canada
Current Conditions -  °F | °C
As of 7:00 AM on Monday 24 Nov 2014 (Local Time) from CYPE Reporting Station
Light Snow Light Snow  
Wind Chill: -15°   Ceiling: 700
Heat Index: -15°   Visibility: 15mi
Dew Point: -16°   Wind: 2mph
Humidity: 92%   Direction: 140°SE
Pressure: 29.97"   Gusts: NA
Location:  55.75°N, 117.33°W
Report Text: CYPE 241400Z 14002KT 15SM -SN OVC007 M15/M16 A2997 RMK SC8 SLP194
Loading
Personal Weather Stations






























Interactive Weather Map New forecast layout! Learn more

10-Day Weather Forecast

Advertisements
Track Severe Weather on mobile